Time;durP1;ratioP1;P1;durP2;ratioP2;P2;SDS_P1;SDS_P2;PMS_P1;PMS_P2;Temp;Humidity;BMP_temperature;BMP_pressure;BME280_temperature;BME280_humidity;BME280_pressure;Samples;Min_cycle;Max_cycle;Signal;HPM_P1;HPM_P2
2023/09/18 00:01:22;;;;;;;9.63;9.13;;;19.00;70.20;;;;;;6023754;29;20252;-84
2023/09/18 00:04:27;;;;;;;11.17;10.43;;;18.90;70.30;;;;;;6008834;29;20241;-84
2023/09/18 00:07:31;;;;;;;10.77;10.07;;;18.90;70.30;;;;;;6009040;29;20268;-82
2023/09/18 00:10:35;;;;;;;10.57;9.90;;;18.90;70.40;;;;;;6008048;29;20244;-82
2023/09/18 00:13:38;;;;;;;11.17;10.47;;;18.90;70.50;;;;;;6023378;29;20760;-83
2023/09/18 00:16:43;;;;;;;10.27;9.73;;;18.90;70.60;;;;;;6006189;29;20245;-83
2023/09/18 00:20:00;;;;;;;11.03;10.33;;;18.80;70.70;;;;;;6011451;29;20329;-82
2023/09/18 00:23:04;;;;;;;11.13;10.23;;;18.80;70.80;;;;;;6009650;29;20229;-83
2023/09/18 00:26:07;;;;;;;9.90;9.30;;;18.80;70.90;;;;;;6008966;29;20236;-83
2023/09/18 00:29:11;;;;;;;10.50;9.90;;;18.80;70.90;;;;;;6010741;29;20735;-81
2023/09/18 00:32:15;;;;;;;9.87;9.27;;;18.80;70.90;;;;;;6009935;29;20635;-82
2023/09/18 00:35:19;;;;;;;9.90;9.20;;;18.70;71.00;;;;;;6022661;29;20237;-82
2023/09/18 00:38:22;;;;;;;9.80;9.20;;;18.70;71.00;;;;;;6015296;29;20253;-83
2023/09/18 00:41:25;;;;;;;9.87;9.27;;;18.70;71.10;;;;;;6011763;29;20369;-81
2023/09/18 00:44:28;;;;;;;9.90;9.40;;;18.60;71.10;;;;;;6014251;29;20240;-81
2023/09/18 00:47:35;;;;;;;10.33;9.73;;;18.60;71.20;;;;;;6000544;29;20256;-82
2023/09/18 00:50:39;;;;;;;10.00;9.27;;;18.60;71.30;;;;;;6011066;29;20336;-81
2023/09/18 00:53:47;;;;;;;10.03;9.43;;;18.50;71.40;;;;;;5999715;29;20233;-84
2023/09/18 00:56:54;;;;;;;9.60;9.03;;;18.50;71.50;;;;;;6015594;29;21061;-82
2023/09/18 00:59:58;;;;;;;9.47;8.97;;;18.50;71.50;;;;;;6012489;29;20241;-81
2023/09/18 01:03:04;;;;;;;10.13;9.43;;;18.40;71.50;;;;;;5999643;29;20238;-84
2023/09/18 01:06:08;;;;;;;11.03;10.20;;;18.40;71.50;;;;;;6006959;29;20256;-83
2023/09/18 01:09:14;;;;;;;10.10;9.40;;;18.40;71.60;;;;;;6015097;29;20251;-83
2023/09/18 01:12:24;;;;;;;10.67;9.97;;;18.40;71.70;;;;;;6017108;29;20632;-82
2023/09/18 01:15:33;;;;;;;10.60;9.90;;;18.40;71.90;;;;;;6013760;29;20299;-82
2023/09/18 01:18:38;;;;;;;10.57;9.87;;;18.30;72.00;;;;;;6018228;29;20239;-85
2023/09/18 01:21:41;;;;;;;10.70;10.00;;;18.30;72.00;;;;;;6023549;29;21026;-82
2023/09/18 01:24:48;;;;;;;9.83;9.30;;;18.30;72.10;;;;;;6026546;29;20252;-83
2023/09/18 01:27:51;;;;;;;10.00;9.30;;;18.30;72.00;;;;;;6016132;29;20249;-83
2023/09/18 01:30:55;;;;;;;9.70;9.00;;;18.30;72.00;;;;;;6020943;29;20255;-82
2023/09/18 01:33:59;;;;;;;9.00;8.53;;;18.30;72.00;;;;;;6003445;29;20248;-80
2023/09/18 01:37:02;;;;;;;11.20;10.50;;;18.20;72.00;;;;;;6015391;29;20323;-82
2023/09/18 01:40:09;;;;;;;11.37;10.57;;;18.20;72.00;;;;;;6013395;29;20259;-83
2023/09/18 01:43:12;;;;;;;9.93;9.33;;;18.10;72.40;;;;;;6019315;29;20245;-82
2023/09/18 01:46:16;;;;;;;10.10;9.50;;;18.10;72.30;;;;;;6019052;29;20325;-82
2023/09/18 01:49:28;;;;;;;9.27;8.73;;;18.10;72.30;;;;;;6015668;29;20278;-83
2023/09/18 01:52:31;;;;;;;9.50;9.07;;;18.10;72.30;;;;;;6003901;29;20242;-82
2023/09/18 01:55:36;;;;;;;11.53;10.57;;;18.10;72.30;;;;;;6010878;29;20241;-81
2023/09/18 01:58:39;;;;;;;9.50;8.90;;;18.00;72.40;;;;;;6002637;29;20245;-80
2023/09/18 02:01:44;;;;;;;10.10;9.50;;;18.00;72.50;;;;;;6003554;29;20253;-84
2023/09/18 02:04:47;;;;;;;9.87;9.37;;;18.00;72.60;;;;;;6018857;29;20268;-80
2023/09/18 02:08:08;;;;;;;11.07;10.37;;;18.00;72.60;;;;;;6017823;29;20917;-79
2023/09/18 02:11:13;;;;;;;9.73;9.13;;;18.00;72.80;;;;;;6018256;29;20241;-82
2023/09/18 02:14:16;;;;;;;10.00;9.30;;;17.90;72.90;;;;;;6014520;29;20325;-83
2023/09/18 02:17:20;;;;;;;9.93;9.43;;;18.00;72.80;;;;;;6013407;29;20242;-82
2023/09/18 02:20:24;;;;;;;10.23;9.63;;;17.90;72.90;;;;;;6006523;29;20610;-84
2023/09/18 02:23:27;;;;;;;10.07;9.37;;;17.90;73.00;;;;;;6006182;29;20248;-81
2023/09/18 02:26:32;;;;;;;9.37;8.90;;;17.90;73.00;;;;;;6004680;29;20244;-81
2023/09/18 02:29:35;;;;;;;9.43;8.93;;;17.80;73.00;;;;;;6009176;29;20246;-82
2023/09/18 02:32:39;;;;;;;11.20;10.23;;;17.80;73.00;;;;;;6017149;29;20245;-81
2023/09/18 02:35:43;;;;;;;10.73;10.03;;;17.80;73.00;;;;;;6019357;29;20253;-81
2023/09/18 02:38:46;;;;;;;10.40;9.70;;;17.80;73.00;;;;;;6014434;29;20739;-81
2023/09/18 02:41:50;;;;;;;10.10;9.40;;;17.80;73.00;;;;;;6002622;29;20298;-81
2023/09/18 02:44:54;;;;;;;10.37;9.70;;;17.80;73.20;;;;;;6021080;29;20272;-82
2023/09/18 02:47:57;;;;;;;10.10;9.30;;;17.80;73.20;;;;;;6003085;29;20248;-83
2023/09/18 02:51:00;;;;;;;10.43;9.83;;;17.80;73.20;;;;;;6018401;29;20264;-83
2023/09/18 02:54:06;;;;;;;10.07;9.37;;;17.70;73.20;;;;;;6009715;29;20248;-84
2023/09/18 02:57:10;;;;;;;9.97;9.33;;;17.70;73.30;;;;;;6015816;29;20455;-81
2023/09/18 03:00:14;;;;;;;10.20;9.57;;;17.60;73.30;;;;;;6013010;29;20236;-83
2023/09/18 03:03:18;;;;;;;9.87;9.27;;;17.60;73.40;;;;;;6021917;29;20249;-82
2023/09/18 03:06:21;;;;;;;11.20;10.40;;;17.60;73.40;;;;;;6013735;29;20326;-84
2023/09/18 03:09:25;;;;;;;11.07;10.27;;;17.50;73.70;;;;;;6023570;29;20243;-84
2023/09/18 03:12:29;;;;;;;10.33;9.67;;;17.50;73.70;;;;;;6011264;29;20260;-83
2023/09/18 03:15:33;;;;;;;10.70;10.00;;;17.50;73.50;;;;;;6018264;29;20366;-83
2023/09/18 03:18:36;;;;;;;9.03;8.60;;;17.50;73.60;;;;;;6025442;29;20248;-82
2023/09/18 03:21:40;;;;;;;10.40;9.60;;;17.50;73.70;;;;;;6013889;29;20252;-84
2023/09/18 03:24:43;;;;;;;10.67;9.87;;;17.50;73.90;;;;;;6014225;29;20757;-84
2023/09/18 03:27:48;;;;;;;10.13;9.37;;;17.50;74.00;;;;;;6016965;29;20255;-82
2023/09/18 03:30:51;;;;;;;11.70;10.80;;;17.40;74.00;;;;;;6008528;29;20273;-80
2023/09/18 03:33:54;;;;;;;10.20;9.57;;;17.40;74.10;;;;;;6011424;29;20328;-82
2023/09/18 03:36:57;;;;;;;10.17;9.57;;;17.40;74.10;;;;;;6011887;29;20317;-83
2023/09/18 03:40:02;;;;;;;11.10;10.40;;;17.30;74.20;;;;;;6010505;29;20245;-83
2023/09/18 03:43:07;;;;;;;9.60;9.10;;;17.40;74.20;;;;;;6007580;29;20238;-84
2023/09/18 03:46:10;;;;;;;10.77;10.00;;;17.30;74.20;;;;;;6006536;29;20901;-80
2023/09/18 03:49:13;;;;;;;10.27;9.57;;;17.30;74.30;;;;;;6005169;29;22360;-83
2023/09/18 03:52:16;;;;;;;11.10;10.20;;;17.30;74.30;;;;;;6005463;29;20245;-83
2023/09/18 03:55:19;;;;;;;9.30;8.80;;;17.20;74.50;;;;;;6002451;29;20245;-83
2023/09/18 03:58:24;;;;;;;10.13;9.53;;;17.20;74.50;;;;;;6000610;29;20242;-83
2023/09/18 04:01:27;;;;;;;10.10;9.50;;;17.20;74.50;;;;;;6011454;29;20314;-82
2023/09/18 04:04:30;;;;;;;11.40;10.33;;;17.20;74.50;;;;;;6012966;29;20692;-80
2023/09/18 04:07:33;;;;;;;10.60;9.90;;;17.20;74.60;;;;;;6017519;29;20274;-82
2023/09/18 04:10:36;;;;;;;10.93;10.10;;;17.20;74.70;;;;;;6020213;29;20720;-78
2023/09/18 04:13:41;;;;;;;10.53;9.83;;;17.20;74.70;;;;;;6004343;29;20287;-80
2023/09/18 04:16:44;;;;;;;10.83;10.10;;;17.20;74.80;;;;;;6007870;29;20245;-80
2023/09/18 04:19:48;;;;;;;10.27;9.63;;;17.20;74.80;;;;;;6015036;29;20388;-80
2023/09/18 04:23:24;;;;;;;11.67;10.83;;;17.20;74.80;;;;;;6019105;29;20236;-81
2023/09/18 04:26:29;;;;;;;10.90;10.10;;;17.20;75.00;;;;;;6005408;29;20236;-82
2023/09/18 04:29:34;;;;;;;11.23;10.43;;;17.10;75.00;;;;;;6013068;29;20245;-79
2023/09/18 04:32:37;;;;;;;10.40;9.80;;;17.10;75.20;;;;;;6021135;29;20245;-81
2023/09/18 04:35:41;;;;;;;10.57;9.87;;;17.10;75.10;;;;;;6017727;29;20261;-80
2023/09/18 04:38:45;;;;;;;10.57;9.77;;;17.10;75.30;;;;;;6011485;29;20264;-81
2023/09/18 04:41:48;;;;;;;10.40;9.70;;;17.10;75.30;;;;;;6016356;29;20249;-81
2023/09/18 04:44:52;;;;;;;9.87;9.30;;;17.00;75.30;;;;;;6021573;29;20286;-81
2023/09/18 04:47:56;;;;;;;10.70;10.00;;;17.00;75.30;;;;;;6009288;29;20324;-79
2023/09/18 04:51:00;;;;;;;11.00;10.23;;;17.00;75.40;;;;;;6007905;29;20235;-78
2023/09/18 04:54:04;;;;;;;11.43;10.53;;;17.00;75.40;;;;;;6012442;29;20652;-80
2023/09/18 04:57:07;;;;;;;11.07;10.03;;;17.10;75.40;;;;;;6013489;29;20245;-81
2023/09/18 05:00:13;;;;;;;11.27;10.17;;;17.00;75.40;;;;;;6016752;29;20378;-80
2023/09/18 05:03:20;;;;;;;10.30;9.60;;;17.00;75.60;;;;;;6021620;29;20237;-80
2023/09/18 05:06:23;;;;;;;10.10;9.40;;;17.00;75.50;;;;;;6008215;29;20248;-79
2023/09/18 05:09:27;;;;;;;10.13;9.30;;;17.10;75.50;;;;;;6013507;29;20253;-81
2023/09/18 05:12:30;;;;;;;10.70;9.80;;;17.10;75.40;;;;;;6021172;29;20253;-80
2023/09/18 05:15:34;;;;;;;10.80;10.03;;;17.10;75.40;;;;;;6012283;29;20245;-80
2023/09/18 05:18:38;;;;;;;13.07;11.70;;;17.10;75.40;;;;;;6015819;29;20934;-81
2023/09/18 05:21:41;;;;;;;12.77;11.57;;;17.20;75.50;;;;;;6019412;29;20297;-80
2023/09/18 05:24:46;;;;;;;11.93;10.80;;;17.20;75.40;;;;;;6027646;29;20254;-80
2023/09/18 05:27:55;;;;;;;11.03;10.33;;;17.20;75.40;;;;;;6031556;29;20244;-81
2023/09/18 05:31:00;;;;;;;11.07;10.00;;;17.20;75.30;;;;;;6014512;29;20240;-80
2023/09/18 05:34:03;;;;;;;10.97;10.17;;;17.30;75.20;;;;;;6014812;29;20237;-79
2023/09/18 05:37:06;;;;;;;9.13;8.63;;;17.40;75.20;;;;;;6018122;29;20268;-82
2023/09/18 05:40:11;;;;;;;10.63;9.83;;;17.50;75.10;;;;;;6015081;29;20407;-80
2023/09/18 05:43:15;;;;;;;9.87;9.27;;;17.50;75.00;;;;;;6010531;29;20768;-79
2023/09/18 05:46:20;;;;;;;10.83;9.83;;;17.50;75.00;;;;;;6014845;29;20251;-81
2023/09/18 05:49:23;;;;;;;11.30;10.50;;;17.60;74.80;;;;;;6013504;29;20438;-81
2023/09/18 05:52:26;;;;;;;12.00;10.80;;;17.70;74.70;;;;;;6021859;29;20242;-80
2023/09/18 05:55:30;;;;;;;9.77;9.10;;;17.80;74.40;;;;;;6017736;29;20273;-81
2023/09/18 05:58:33;;;;;;;11.37;10.57;;;17.80;74.30;;;;;;6019013;29;20261;-82
2023/09/18 06:01:38;;;;;;;9.60;9.03;;;18.00;74.20;;;;;;6015548;29;20241;-83
2023/09/18 06:04:41;;;;;;;10.97;10.20;;;18.00;74.10;;;;;;6016533;29;20255;-80
2023/09/18 06:07:45;;;;;;;11.27;10.10;;;18.10;74.00;;;;;;6024743;29;20475;-81
2023/09/18 06:10:49;;;;;;;13.00;10.90;;;18.20;73.80;;;;;;6019054;29;20256;-81
2023/09/18 06:13:52;;;;;;;10.50;9.80;;;18.30;73.20;;;;;;6020352;29;20245;-81
2023/09/18 06:16:56;;;;;;;10.57;9.70;;;18.30;73.30;;;;;;6009872;29;20242;-80
2023/09/18 06:20:00;;;;;;;10.23;8.87;;;18.40;73.00;;;;;;6014275;29;20244;-82
2023/09/18 06:23:04;;;;;;;8.40;8.00;;;18.50;72.90;;;;;;6016884;29;20245;-80
2023/09/18 06:26:07;;;;;;;9.13;8.53;;;18.50;72.90;;;;;;6013446;29;20233;-79
2023/09/18 06:29:10;;;;;;;9.87;9.20;;;18.60;72.80;;;;;;6019322;29;20623;-79
2023/09/18 06:32:15;;;;;;;10.00;9.20;;;18.70;72.60;;;;;;6015359;29;20245;-80
2023/09/18 06:35:18;;;;;;;10.93;9.70;;;18.70;72.20;;;;;;6021333;29;20237;-78
2023/09/18 06:38:21;;;;;;;9.37;8.50;;;18.80;71.90;;;;;;6007647;29;20247;-80
2023/09/18 06:41:24;;;;;;;10.33;9.47;;;18.80;72.00;;;;;;6010925;29;20244;-81
2023/09/18 06:44:28;;;;;;;9.40;8.60;;;18.90;72.00;;;;;;6002193;29;20264;-80
2023/09/18 06:47:32;;;;;;;8.47;7.77;;;19.00;71.90;;;;;;6006912;29;20246;-80
2023/09/18 06:50:36;;;;;;;9.67;8.67;;;19.20;71.60;;;;;;6011647;29;20242;-79
2023/09/18 06:53:39;;;;;;;8.83;8.33;;;19.50;70.40;;;;;;6012919;29;20320;-81
2023/09/18 06:56:44;;;;;;;11.00;9.23;;;19.70;70.40;;;;;;6014173;29;20840;-80
2023/09/18 06:59:48;;;;;;;9.27;8.47;;;19.70;69.80;;;;;;6007452;29;20238;-80
2023/09/18 07:02:52;;;;;;;8.87;8.27;;;19.70;70.20;;;;;;6019440;29;20374;-79
2023/09/18 07:05:56;;;;;;;8.87;8.07;;;20.00;69.40;;;;;;6011738;29;20245;-79
2023/09/18 07:08:59;;;;;;;9.73;8.63;;;20.20;69.00;;;;;;6010328;29;20332;-79
2023/09/18 07:12:02;;;;;;;9.87;9.00;;;20.30;68.80;;;;;;6004258;29;20237;-79
2023/09/18 07:15:06;;;;;;;9.23;8.43;;;20.30;68.50;;;;;;6003161;29;20245;-81
2023/09/18 07:18:14;;;;;;;8.43;7.70;;;20.30;68.30;;;;;;6008728;29;20284;-81
2023/09/18 07:21:17;;;;;;;8.37;7.70;;;20.40;68.40;;;;;;6007725;29;20241;-78
2023/09/18 07:24:20;;;;;;;8.07;7.47;;;20.50;68.00;;;;;;6017272;29;20742;-79
2023/09/18 07:27:23;;;;;;;9.00;8.10;;;20.60;68.00;;;;;;6013926;29;20624;-80
2023/09/18 07:30:28;;;;;;;7.23;6.73;;;20.60;67.90;;;;;;6011362;29;20264;-79
2023/09/18 07:33:33;;;;;;;15.03;8.23;;;20.70;68.00;;;;;;6011690;29;20265;-81
2023/09/18 07:36:37;;;;;;;7.30;6.90;;;20.70;67.70;;;;;;6005546;29;20233;-78
2023/09/18 07:39:43;;;;;;;7.67;7.17;;;20.80;67.80;;;;;;6019654;29;20247;-80
2023/09/18 07:42:46;;;;;;;8.10;7.53;;;20.90;67.50;;;;;;6012982;29;20242;-81
2023/09/18 07:45:50;;;;;;;7.80;7.30;;;21.00;67.50;;;;;;6005676;29;20319;-80
2023/09/18 07:48:55;;;;;;;8.30;7.80;;;21.10;67.40;;;;;;6011166;29;20252;-81
2023/09/18 07:51:58;;;;;;;8.70;8.10;;;21.20;67.20;;;;;;6007386;29;20666;-79
2023/09/18 07:55:01;;;;;;;7.20;6.80;;;21.30;66.60;;;;;;6008752;29;20248;-82
2023/09/18 07:58:05;;;;;;;7.50;7.00;;;21.40;66.50;;;;;;6000364;29;20249;-80
2023/09/18 08:01:08;;;;;;;7.87;7.47;;;21.50;66.00;;;;;;6012470;29;20256;-78
2023/09/18 08:04:13;;;;;;;6.87;6.57;;;21.60;66.20;;;;;;6016317;29;20242;-79
2023/09/18 08:07:16;;;;;;;7.50;6.83;;;21.70;65.80;;;;;;5996148;29;20239;-79
2023/09/18 08:10:19;;;;;;;6.63;6.33;;;21.90;65.90;;;;;;6011437;29;20317;-77
2023/09/18 08:13:24;;;;;;;7.27;6.87;;;21.90;65.40;;;;;;6007802;29;20907;-80
2023/09/18 08:16:27;;;;;;;7.50;6.90;;;22.10;65.10;;;;;;6008170;29;20328;-81
2023/09/18 08:19:32;;;;;;;6.93;6.53;;;22.20;64.50;;;;;;6012280;29;20240;-79
2023/09/18 08:22:35;;;;;;;6.83;6.53;;;22.50;64.80;;;;;;6009882;29;20257;-78
2023/09/18 08:25:39;;;;;;;8.77;7.10;;;22.50;64.10;;;;;;6019301;29;20702;-82
2023/09/18 08:28:43;;;;;;;7.27;6.90;;;22.60;63.60;;;;;;6007670;29;20241;-79
2023/09/18 08:31:46;;;;;;;8.10;7.33;;;22.80;63.90;;;;;;6006275;29;20232;-78
2023/09/18 08:34:51;;;;;;;7.13;6.50;;;22.90;63.30;;;;;;6014503;29;20241;-80
2023/09/18 08:37:54;;;;;;;7.23;6.80;;;23.10;63.00;;;;;;6004229;29;20738;-78
2023/09/18 08:40:59;;;;;;;7.07;6.77;;;23.20;62.60;;;;;;6015517;29;20294;-78
2023/09/18 08:44:04;;;;;;;11.63;7.53;;;23.40;62.30;;;;;;6012811;29;20252;-80
2023/09/18 08:47:09;;;;;;;7.93;7.33;;;23.60;61.80;;;;;;6009882;29;20252;-79
2023/09/18 08:50:15;;;;;;;7.63;6.77;;;23.70;61.70;;;;;;6008666;29;20252;-79
2023/09/18 08:53:18;;;;;;;7.63;6.90;;;23.90;60.80;;;;;;6001804;29;20241;-80
2023/09/18 08:56:22;;;;;;;7.30;6.73;;;24.20;60.30;;;;;;6002755;29;20240;-80
2023/09/18 08:59:28;;;;;;;9.47;7.60;;;24.40;59.70;;;;;;6020366;29;20264;-79
2023/09/18 09:02:32;;;;;;;7.47;6.07;;;24.40;59.90;;;;;;6007776;29;20282;-79
2023/09/18 09:05:36;;;;;;;7.33;6.63;;;24.50;59.40;;;;;;6005627;29;20363;-80
2023/09/18 09:08:39;;;;;;;7.30;6.53;;;24.60;59.60;;;;;;6010425;29;20242;-78
2023/09/18 09:11:50;;;;;;;8.03;7.30;;;24.80;59.50;;;;;;6014772;29;20664;-79
2023/09/18 09:15:04;;;;;;;6.80;6.40;;;24.90;59.00;;;;;;6008151;29;20638;-79
2023/09/18 09:18:09;;;;;;;7.23;6.70;;;25.00;58.90;;;;;;6002293;29;20373;-82
2023/09/18 09:21:14;;;;;;;6.87;6.57;;;25.00;58.40;;;;;;6001372;29;20356;-80
2023/09/18 09:24:18;;;;;;;8.03;7.43;;;25.20;58.20;;;;;;6007731;29;20248;-79
2023/09/18 09:27:21;;;;;;;6.60;6.30;;;25.40;57.70;;;;;;6012452;29;20343;-80
2023/09/18 09:30:25;;;;;;;6.47;6.17;;;25.60;58.10;;;;;;6017072;29;20260;-79
2023/09/18 09:33:29;;;;;;;6.67;6.37;;;25.70;57.00;;;;;;6014003;29;20683;-81
2023/09/18 09:36:34;;;;;;;6.60;6.30;;;25.80;57.40;;;;;;6012639;29;20244;-79
2023/09/18 09:39:48;;;;;;;7.10;6.70;;;26.00;57.00;;;;;;6004702;29;20320;-78
2023/09/18 09:42:53;;;;;;;6.20;5.90;;;26.00;57.10;;;;;;6012871;29;20241;-78
2023/09/18 09:46:00;;;;;;;7.03;6.30;;;26.00;57.00;;;;;;6011279;29;20365;-78
2023/09/18 09:49:05;;;;;;;6.87;6.57;;;26.10;57.00;;;;;;6023909;29;20266;-78
2023/09/18 09:52:21;;;;;;;6.07;5.80;;;26.10;56.70;;;;;;6020029;29;20272;-82
2023/09/18 09:55:27;;;;;;;7.00;6.30;;;26.30;57.10;;;;;;6013948;29;20284;-78
2023/09/18 09:58:32;;;;;;;7.00;6.43;;;26.40;56.20;;;;;;6014463;29;20240;-76
2023/09/18 10:01:35;;;;;;;12.23;6.13;;;26.20;56.40;;;;;;6017045;29;20249;-80
2023/09/18 10:04:39;;;;;;;8.30;6.60;;;26.20;56.60;;;;;;6010159;29;20249;-79
2023/09/18 10:07:44;;;;;;;6.70;6.20;;;26.10;56.60;;;;;;6012666;29;20253;-81
2023/09/18 10:10:48;;;;;;;6.57;6.27;;;26.20;56.10;;;;;;6017576;29;20253;-79
2023/09/18 10:13:56;;;;;;;6.07;5.77;;;26.40;56.60;;;;;;6007744;29;20366;-81
2023/09/18 10:17:06;;;;;;;9.97;6.60;;;26.40;55.60;;;;;;6011339;29;20244;-80
2023/09/18 10:20:17;;;;;;;8.73;6.43;;;26.50;55.80;;;;;;6015467;29;20679;-79
2023/09/18 10:23:33;;;;;;;6.70;6.10;;;26.40;56.00;;;;;;6011252;29;20341;-81
2023/09/18 10:26:49;;;;;;;6.20;5.80;;;26.50;56.30;;;;;;6010040;29;20245;-77
2023/09/18 10:29:54;;;;;;;6.70;6.20;;;26.40;55.90;;;;;;6009993;29;20246;-82
2023/09/18 10:32:59;;;;;;;8.80;6.30;;;26.50;56.50;;;;;;6013635;29;20320;-82
2023/09/18 10:36:03;;;;;;;6.43;5.77;;;26.50;55.60;;;;;;5997662;29;20612;-81
2023/09/18 10:39:12;;;;;;;6.50;5.90;;;26.50;56.10;;;;;;6016856;29;20233;-79
2023/09/18 10:42:19;;;;;;;6.27;5.70;;;26.50;55.80;;;;;;6008773;29;20268;-79
2023/09/18 10:45:22;;;;;;;5.53;5.27;;;26.40;54.70;;;;;;6012382;29;20241;-81
2023/09/18 10:48:26;;;;;;;5.97;5.60;;;26.50;54.70;;;;;;6011829;29;20697;-82
2023/09/18 10:51:32;;;;;;;6.73;6.30;;;26.40;54.50;;;;;;6008337;29;20328;-81
2023/09/18 10:54:39;;;;;;;6.40;6.07;;;26.40;54.00;;;;;;6009873;29;20755;-80
2023/09/18 10:57:52;;;;;;;5.73;5.53;;;26.10;54.60;;;;;;6009854;29;20256;-80
2023/09/18 11:00:57;;;;;;;7.07;6.47;;;26.00;55.50;;;;;;6012054;29;20237;-82
2023/09/18 11:04:02;;;;;;;7.73;6.80;;;26.10;55.40;;;;;;6015002;29;20309;-81
2023/09/18 11:07:06;;;;;;;6.23;5.90;;;26.10;55.00;;;;;;6013232;29;20901;-82
2023/09/18 11:10:29;;;;;;;7.70;7.10;;;26.00;55.40;;;;;;6017019;29;20245;-78
2023/09/18 11:13:36;;;;;;;7.07;6.60;;;26.00;55.40;;;;;;6003510;29;20393;-79
2023/09/18 11:16:40;;;;;;;7.03;6.47;;;26.00;55.00;;;;;;6010719;29;20657;-77
2023/09/18 11:19:46;;;;;;;6.80;6.30;;;26.00;55.60;;;;;;6009213;29;20322;-80
2023/09/18 11:22:50;;;;;;;7.23;6.73;;;25.90;55.90;;;;;;6011929;29;20265;-81
2023/09/18 11:25:55;;;;;;;6.10;5.90;;;25.90;55.70;;;;;;6010692;29;20723;-82
2023/09/18 11:29:04;;;;;;;6.77;6.37;;;25.80;55.80;;;;;;6012403;29;20264;-81
2023/09/18 11:32:09;;;;;;;7.33;6.80;;;25.70;56.40;;;;;;6003029;29;20294;-82
2023/09/18 11:35:16;;;;;;;8.30;7.47;;;25.60;56.60;;;;;;6013882;29;20829;-84
2023/09/18 11:38:20;;;;;;;7.43;6.93;;;25.60;56.40;;;;;;6017872;29;20276;-81
2023/09/18 11:41:27;;;;;;;6.03;5.83;;;25.70;56.70;;;;;;6017264;29;20244;-79
2023/09/18 11:44:36;;;;;;;7.50;6.83;;;25.60;56.40;;;;;;6010288;29;20245;-79
2023/09/18 11:47:42;;;;;;;9.53;7.10;;;25.60;57.30;;;;;;6016645;29;20311;-79
2023/09/18 11:50:48;;;;;;;7.83;7.10;;;25.60;56.60;;;;;;6011133;29;20241;-80
2023/09/18 11:53:57;;;;;;;8.07;7.27;;;25.60;57.00;;;;;;6007661;29;20265;-79
2023/09/18 11:57:06;;;;;;;7.90;7.40;;;25.50;57.50;;;;;;6014824;29;20759;-80
2023/09/18 12:00:23;;;;;;;8.23;7.37;;;25.40;57.50;;;;;;6011582;29;20241;-81
2023/09/18 12:03:26;;;;;;;7.73;7.07;;;25.40;57.70;;;;;;6026822;29;20241;-80
2023/09/18 12:06:29;;;;;;;14.27;8.20;;;25.30;58.70;;;;;;6014112;29;20232;-80
2023/09/18 12:09:33;;;;;;;7.97;7.40;;;25.30;59.00;;;;;;6013578;29;20249;-77
2023/09/18 12:12:38;;;;;;;7.43;6.90;;;25.30;59.00;;;;;;6012639;29;20630;-82
2023/09/18 12:15:43;;;;;;;7.33;6.70;;;25.40;58.00;;;;;;6003701;29;20301;-79
2023/09/18 12:18:47;;;;;;;8.47;7.47;;;25.50;57.40;;;;;;6007428;29;20310;-80
2023/09/18 12:21:50;;;;;;;7.53;6.90;;;25.60;57.80;;;;;;6011139;29;20241;-79
2023/09/18 12:24:54;;;;;;;7.20;6.80;;;25.80;56.70;;;;;;6004635;29;20336;-82
2023/09/18 12:28:00;;;;;;;6.60;6.13;;;26.00;56.90;;;;;;6010597;29;20267;-81
2023/09/18 12:31:06;;;;;;;6.97;6.57;;;26.30;56.50;;;;;;6007964;29;20241;-78
2023/09/18 12:34:15;;;;;;;7.60;7.23;;;26.50;56.20;;;;;;6002987;29;20246;-81
2023/09/18 12:37:18;;;;;;;7.00;6.40;;;26.50;55.40;;;;;;6006216;29;20245;-78
2023/09/18 12:40:23;;;;;;;6.47;5.97;;;26.40;54.90;;;;;;6014582;29;20279;-81
2023/09/18 12:43:30;;;;;;;6.47;5.90;;;26.00;55.50;;;;;;6011061;29;20325;-80
2023/09/18 12:46:35;;;;;;;6.97;5.90;;;25.90;55.90;;;;;;6011517;29;20626;-79
2023/09/18 12:49:39;;;;;;;10.23;7.20;;;25.80;55.80;;;;;;6016959;29;20241;-78
2023/09/18 12:52:45;;;;;;;14.73;6.73;;;25.70;55.90;;;;;;6010202;29;20378;-81
2023/09/18 12:55:49;;;;;;;6.33;5.93;;;25.50;56.40;;;;;;6012094;29;20882;-80
2023/09/18 12:58:58;;;;;;;7.53;6.97;;;25.30;56.60;;;;;;6002423;29;20802;-81
2023/09/18 13:02:18;;;;;;;8.90;6.60;;;25.40;56.90;;;;;;6008815;29;20292;-80
2023/09/18 13:05:25;;;;;;;6.83;6.33;;;25.20;57.00;;;;;;6003741;29;20393;-80
2023/09/18 13:08:28;;;;;;;6.37;6.00;;;25.10;57.90;;;;;;6011659;29;20248;-78
2023/09/18 13:11:32;;;;;;;6.27;5.67;;;25.00;57.90;;;;;;6006203;29;20241;-81
2023/09/18 13:15:04;;;;;;;8.03;6.03;;;25.00;57.90;;;;;;6001341;29;20241;-80
2023/09/18 13:18:11;;;;;;;7.37;5.63;;;25.00;58.00;;;;;;6007097;29;20252;-79
2023/09/18 13:21:14;;;;;;;6.37;6.07;;;24.90;58.10;;;;;;6010095;29;20240;-80
2023/09/18 13:24:28;;;;;;;7.13;6.53;;;24.90;58.70;;;;;;6008657;29;20264;-76
2023/09/18 13:27:31;;;;;;;6.90;6.20;;;24.80;58.80;;;;;;6013859;29;20274;-80
2023/09/18 13:30:39;;;;;;;6.50;5.87;;;24.70;58.70;;;;;;6007869;29;20249;-78
2023/09/18 13:33:44;;;;;;;6.90;6.20;;;24.60;59.50;;;;;;6018526;29;20242;-81
2023/09/18 13:36:48;;;;;;;6.90;6.33;;;24.60;59.50;;;;;;6013054;29;20253;-81
2023/09/18 13:39:51;;;;;;;11.57;8.77;;;24.50;59.20;;;;;;6013747;29;20249;-79
2023/09/18 13:42:55;;;;;;;9.70;7.17;;;24.40;59.90;;;;;;6020004;29;20628;-79
2023/09/18 13:45:59;;;;;;;8.47;7.53;;;24.40;60.70;;;;;;6011293;29;20252;-79
2023/09/18 13:49:03;;;;;;;7.37;6.87;;;24.20;60.90;;;;;;6012083;29;20249;-80
2023/09/18 13:52:07;;;;;;;9.10;6.63;;;24.10;61.90;;;;;;6011451;29;20244;-81
2023/09/18 13:55:10;;;;;;;8.60;7.67;;;23.90;63.00;;;;;;6010302;29;20241;-81
2023/09/18 13:58:13;;;;;;;9.67;7.47;;;23.80;63.20;;;;;;6020512;29;20308;-76
2023/09/18 14:01:18;;;;;;;7.10;6.50;;;23.90;63.60;;;;;;6013737;29;20253;-80
2023/09/18 14:04:23;;;;;;;7.40;6.77;;;24.00;62.30;;;;;;6014708;29;20317;-78
2023/09/18 14:07:27;;;;;;;6.47;5.87;;;24.10;62.60;;;;;;6007970;29;20324;-79
2023/09/18 14:10:30;;;;;;;5.93;5.47;;;23.90;62.20;;;;;;6014216;29;20264;-81
2023/09/18 14:13:33;;;;;;;6.30;5.70;;;23.90;62.80;;;;;;6005197;29;20276;-81
2023/09/18 14:16:38;;;;;;;6.17;5.90;;;24.00;62.70;;;;;;6018596;29;20246;-80
2023/09/18 14:19:41;;;;;;;8.10;7.30;;;24.00;63.10;;;;;;6015913;29;20341;-79
2023/09/18 14:22:45;;;;;;;6.57;6.07;;;24.20;63.10;;;;;;6017877;29;20252;-80
2023/09/18 14:25:49;;;;;;;7.00;6.60;;;24.20;62.90;;;;;;6007316;29;20233;-80
2023/09/18 14:28:53;;;;;;;7.70;7.00;;;24.20;63.20;;;;;;6015582;29;20320;-79
2023/09/18 14:31:57;;;;;;;8.43;7.50;;;24.20;63.10;;;;;;6010964;29;20249;-78
2023/09/18 14:35:01;;;;;;;9.83;6.77;;;24.20;63.30;;;;;;6010101;29;20320;-80
2023/09/18 14:38:06;;;;;;;10.43;7.30;;;24.20;63.30;;;;;;6021501;29;20331;-80
2023/09/18 14:41:09;;;;;;;7.40;6.23;;;24.00;63.30;;;;;;6003797;29;20247;-79
2023/09/18 14:44:12;;;;;;;6.00;5.50;;;23.90;62.90;;;;;;6006045;29;20241;-75
2023/09/18 14:47:17;;;;;;;9.50;7.43;;;23.80;62.50;;;;;;6010554;29;20241;-81
2023/09/18 14:50:26;;;;;;;7.83;5.30;;;23.80;62.70;;;;;;6013183;29;20241;-79
2023/09/18 14:53:29;;;;;;;7.17;5.00;;;23.80;62.70;;;;;;6004623;29;20256;-81
2023/09/18 14:56:33;;;;;;;5.03;4.73;;;23.70;62.40;;;;;;6011541;29;20252;-81
2023/09/18 14:59:38;;;;;;;5.33;5.00;;;23.60;62.40;;;;;;6004078;29;20259;-82
2023/09/18 15:02:46;;;;;;;5.30;4.80;;;23.80;62.20;;;;;;6008835;29;20245;-83
2023/09/18 15:05:50;;;;;;;5.37;4.87;;;23.80;61.30;;;;;;6001528;29;20246;-79
2023/09/18 15:08:54;;;;;;;7.83;5.77;;;23.70;61.70;;;;;;6016276;29;20236;-85
2023/09/18 15:11:57;;;;;;;5.63;4.83;;;23.80;61.20;;;;;;6016444;29;20867;-79
2023/09/18 15:15:01;;;;;;;8.97;4.83;;;23.80;61.10;;;;;;6015783;29;20750;-80
2023/09/18 15:18:08;;;;;;;5.00;4.13;;;23.90;60.70;;;;;;6002093;29;20635;-77
2023/09/18 15:21:11;;;;;;;4.30;3.97;;;23.90;60.30;;;;;;6012478;29;20298;-78
2023/09/18 15:24:14;;;;;;;7.20;3.97;;;23.90;60.20;;;;;;6007782;29;20334;-81
2023/09/18 15:27:17;;;;;;;3.90;3.60;;;23.90;60.00;;;;;;6008097;29;20242;-81
2023/09/18 15:30:21;;;;;;;6.57;4.23;;;23.90;60.10;;;;;;6011677;29;20321;-79
2023/09/18 15:33:28;;;;;;;6.30;3.97;;;23.80;60.30;;;;;;6014040;29;20322;-79
2023/09/18 15:36:32;;;;;;;5.53;3.80;;;23.80;60.10;;;;;;6010707;29;20252;-80
2023/09/18 15:39:35;;;;;;;6.13;3.80;;;23.80;60.00;;;;;;6012073;29;20328;-80
2023/09/18 15:42:39;;;;;;;3.90;3.53;;;23.80;60.20;;;;;;6005915;29;20290;-80
2023/09/18 15:45:42;;;;;;;6.70;4.03;;;23.80;60.10;;;;;;6011351;29;20906;-81
2023/09/18 15:48:46;;;;;;;10.00;6.23;;;23.60;60.20;;;;;;6009898;29;20244;-78
2023/09/18 15:51:50;;;;;;;5.97;4.13;;;23.70;60.50;;;;;;6015551;29;20269;-77
2023/09/18 15:54:53;;;;;;;7.77;4.10;;;23.80;60.10;;;;;;6006984;29;20230;-79
2023/09/18 15:57:56;;;;;;;6.57;3.83;;;23.70;60.40;;;;;;6014116;29;20341;-79